createdAt,value
2024-01-09T00:00:09.537Z,-2.87
2024-01-09T00:01:10.254Z,-2.91
2024-01-09T00:02:11.770Z,-2.91
2024-01-09T00:03:11.230Z,-2.93
2024-01-09T00:04:11.250Z,-2.93
2024-01-09T00:05:11.707Z,-2.93
2024-01-09T00:06:12.354Z,-2.94
2024-01-09T00:07:12.210Z,-2.96
2024-01-09T00:08:12.721Z,-2.99
2024-01-09T00:09:13.560Z,-3.04
2024-01-09T00:10:14.443Z,-3.12
2024-01-09T00:11:15.340Z,-3.11
2024-01-09T00:12:16.197Z,-3.11
2024-01-09T00:13:17.088Z,-3.14
2024-01-09T00:14:18.227Z,-3.11
2024-01-09T00:15:18.517Z,-3.07
2024-01-09T00:16:19.356Z,-3.04
2024-01-09T00:17:19.575Z,-3.02
2024-01-09T00:18:20.144Z,-3.07
2024-01-09T00:19:20.463Z,-3.17
2024-01-09T00:20:20.891Z,-3.01
2024-01-09T00:21:20.909Z,-3.09
2024-01-09T00:22:21.297Z,-2.99
2024-01-09T00:23:22.035Z,-3.05
2024-01-09T00:24:22.264Z,-3.02
2024-01-09T00:25:23.026Z,-3.09
2024-01-09T00:26:23.956Z,-3.05
2024-01-09T00:27:24.320Z,-3.08
2024-01-09T00:28:24.119Z,-3.15
2024-01-09T00:29:25.043Z,-3.14
2024-01-09T00:30:25.353Z,-3.12
2024-01-09T00:31:26.521Z,-3.09
2024-01-09T00:32:27.406Z,-3.05
2024-01-09T00:33:28.045Z,-3.09
2024-01-09T00:34:28.700Z,-3.04
2024-01-09T00:35:29.178Z,-2.96
2024-01-09T00:36:29.823Z,-2.94
2024-01-09T00:37:30.562Z,-2.96
2024-01-09T00:38:31.626Z,-2.96
2024-01-09T00:39:31.359Z,-2.98
2024-01-09T00:40:31.945Z,-2.98
2024-01-09T00:41:33.166Z,-3.08
2024-01-09T00:42:33.457Z,-3.15
2024-01-09T00:43:33.968Z,-3.11
2024-01-09T00:44:35.053Z,-3.12
2024-01-09T00:45:39.699Z,-3.08
2024-01-09T00:46:35.727Z,-3.14
2024-01-09T00:47:36.900Z,-3.12
2024-01-09T00:48:38.118Z,-3.11
2024-01-09T00:49:38.019Z,-3.12
2024-01-09T00:50:38.381Z,-3.05
2024-01-09T00:51:38.537Z,-2.99
2024-01-09T00:52:38.905Z,-3.01
2024-01-09T00:53:39.723Z,-2.98
2024-01-09T00:54:40.092Z,-2.99
2024-01-09T00:55:40.592Z,-2.94
2024-01-09T00:56:41.505Z,-2.99
2024-01-09T00:57:41.609Z,-3.01
2024-01-09T00:58:42.335Z,-3.08
2024-01-09T00:59:42.910Z,-3.09
2024-01-09T01:00:43.829Z,-3.14
2024-01-09T01:01:44.017Z,-3.19
2024-01-09T01:02:45.003Z,-3.23
2024-01-09T01:03:45.502Z,-3.19
2024-01-09T01:04:46.856Z,-3.2
2024-01-09T01:05:47.501Z,-3.19
2024-01-09T01:06:47.625Z,-3.22
2024-01-09T01:07:47.931Z,-3.22
2024-01-09T01:08:48.686Z,-3.2
2024-01-09T01:09:49.504Z,-3.15
2024-01-09T01:10:49.946Z,-3.22
2024-01-09T01:11:51.169Z,-3.2
2024-01-09T01:12:50.990Z,-3.17
2024-01-09T01:13:52.028Z,-3.19
2024-01-09T01:14:52.913Z,-3.25
2024-01-09T01:15:53.702Z,-3.23
2024-01-09T01:16:53.825Z,-3.22
2024-01-09T01:17:54.990Z,-3.17
2024-01-09T01:18:54.896Z,-3.25
2024-01-09T01:19:55.932Z,-3.23
2024-01-09T01:20:56.019Z,-3.19
2024-01-09T01:21:56.357Z,-3.15
2024-01-09T01:22:57.278Z,-3.19
2024-01-09T01:23:58.519Z,-3.25
2024-01-09T01:24:59.060Z,-3.19
2024-01-09T01:25:59.608Z,-3.15
2024-01-09T01:27:01.078Z,-3.23
2024-01-09T01:28:01.290Z,-3.11
2024-01-09T01:29:02.035Z,-3.12
2024-01-09T01:30:02.350Z,-3.25
2024-01-09T01:31:02.702Z,-3.12
2024-01-09T01:32:03.713Z,-3.23
2024-01-09T01:33:04.977Z,-3.23
2024-01-09T01:34:05.257Z,-3.2
2024-01-09T01:35:05.832Z,-3.23
2024-01-09T01:36:06.626Z,-3.11
2024-01-09T01:37:06.747Z,-3.14
2024-01-09T01:38:07.381Z,-3.15
2024-01-09T01:39:08.195Z,-3.2
2024-01-09T01:40:08.714Z,-3.27
2024-01-09T01:41:09.379Z,-3.25
2024-01-09T01:42:11.696Z,-3.17
2024-01-09T01:44:11.109Z,-3.17
2024-01-09T01:45:11.942Z,-3.25
2024-01-09T01:46:12.232Z,-3.23
2024-01-09T01:47:13.241Z,-3.26
2024-01-09T01:48:13.495Z,-3.33
2024-01-09T01:49:14.345Z,-3.36
2024-01-09T01:50:14.837Z,-3.3
2024-01-09T01:51:14.564Z,-3.29
2024-01-09T01:52:15.546Z,-3.3
2024-01-09T01:53:16.675Z,-3.25
2024-01-09T01:54:17.287Z,-3.26
2024-01-09T01:55:17.991Z,-3.23
2024-01-09T01:56:19.032Z,-3.19
2024-01-09T01:57:19.903Z,-3.26
2024-01-09T01:58:20.650Z,-3.27
2024-01-09T01:59:21.025Z,-3.36
2024-01-09T02:00:21.464Z,-3.33
2024-01-09T02:01:22.575Z,-3.36
2024-01-09T02:02:23.596Z,-3.29
2024-01-09T02:03:23.921Z,-3.32
2024-01-09T02:04:24.318Z,-3.33
2024-01-09T02:05:25.432Z,-3.36
2024-01-09T02:06:26.025Z,-3.46
2024-01-09T02:07:25.822Z,-3.38
2024-01-09T02:08:26.753Z,-3.41
2024-01-09T02:09:26.449Z,-3.4
2024-01-09T02:10:27.073Z,-3.33
2024-01-09T02:11:27.866Z,-3.4
2024-01-09T02:12:28.502Z,-3.37
2024-01-09T02:13:29.434Z,-3.43
2024-01-09T02:14:30.289Z,-3.4
2024-01-09T02:15:30.255Z,-3.4
2024-01-09T02:16:31.245Z,-3.46
2024-01-09T02:17:35.380Z,-3.4
2024-01-09T02:19:33.076Z,-3.38
2024-01-09T02:20:32.811Z,-3.37
2024-01-09T02:21:33.483Z,-3.47
2024-01-09T02:22:34.438Z,-3.41
2024-01-09T02:23:35.271Z,-3.41
2024-01-09T02:24:37.344Z,-3.41
2024-01-09T02:26:59.226Z,-3.43
2024-01-09T02:28:38.303Z,-3.46
2024-01-09T02:29:38.177Z,-3.43
2024-01-09T02:30:38.802Z,-3.4
2024-01-09T02:31:38.972Z,-3.37
2024-01-09T02:32:40.377Z,-3.44
2024-01-09T02:33:40.831Z,-3.44
2024-01-09T02:34:41.363Z,-3.5
2024-01-09T02:35:41.296Z,-3.43
2024-01-09T02:36:42.158Z,-3.43
2024-01-09T02:37:42.936Z,-3.48
2024-01-09T02:38:43.973Z,-3.5
2024-01-09T02:39:44.060Z,-3.53
2024-01-09T02:40:44.207Z,-3.48
2024-01-09T02:41:44.588Z,-3.44
2024-01-09T02:42:44.527Z,-3.41
2024-01-09T02:43:45.572Z,-3.41
2024-01-09T02:44:46.309Z,-3.41
2024-01-09T02:45:46.650Z,-3.41
2024-01-09T02:46:47.428Z,-3.44
2024-01-09T02:47:48.644Z,-3.48
2024-01-09T02:48:48.963Z,-3.62
2024-01-09T02:49:49.463Z,-3.58
2024-01-09T02:50:50.569Z,-3.62
2024-01-09T02:51:51.478Z,-3.62
2024-01-09T02:52:51.990Z,-3.56
2024-01-09T02:53:52.927Z,-3.59
2024-01-09T02:54:53.529Z,-3.62
2024-01-09T02:55:54.246Z,-3.56
2024-01-09T02:56:54.584Z,-3.69
2024-01-09T02:57:54.292Z,-3.77
2024-01-09T02:58:55.223Z,-3.74
2024-01-09T02:59:56.067Z,-3.8
2024-01-09T03:00:57.009Z,-3.78
2024-01-09T03:01:57.648Z,-3.81
2024-01-09T03:02:59.210Z,-3.71
2024-01-09T03:04:00.181Z,-3.83
2024-01-09T03:05:00.548Z,-3.69
2024-01-09T03:06:02.035Z,-3.74
2024-01-09T03:07:02.800Z,-3.75
2024-01-09T03:08:02.188Z,-3.62
2024-01-09T03:09:03.179Z,-3.59
2024-01-09T03:10:04.313Z,-3.55
2024-01-09T03:11:04.426Z,-3.58
2024-01-09T03:12:05.212Z,-3.71
2024-01-09T03:13:05.705Z,-3.64
2024-01-09T03:14:06.437Z,-3.68
2024-01-09T03:15:06.635Z,-3.78
2024-01-09T03:16:07.029Z,-3.75
2024-01-09T03:17:07.737Z,-3.84
2024-01-09T03:18:09.362Z,-3.91
2024-01-09T03:19:09.987Z,-3.95
2024-01-09T03:20:10.291Z,-4.01
2024-01-09T03:21:11.475Z,-4.01
2024-01-09T03:22:12.287Z,-4.06
2024-01-09T03:23:13.135Z,-4.01
2024-01-09T03:24:13.158Z,-4.09
2024-01-09T03:25:14.244Z,-4.06
2024-01-09T03:26:14.304Z,-3.98
2024-01-09T03:27:15.281Z,-3.96
2024-01-09T03:28:16.186Z,-3.96
2024-01-09T03:29:17.491Z,-4.12
2024-01-09T03:30:17.208Z,-3.99
2024-01-09T03:31:18.264Z,-4.04
2024-01-09T03:32:18.857Z,-3.91
2024-01-09T03:33:19.414Z,-3.99
2024-01-09T03:34:19.718Z,-4.02
2024-01-09T03:35:20.701Z,-3.99
2024-01-09T03:36:21.605Z,-3.91
2024-01-09T03:37:21.903Z,-4.05
2024-01-09T03:38:22.806Z,-4.02
2024-01-09T03:39:23.013Z,-4.01
2024-01-09T03:40:23.618Z,-3.96
2024-01-09T03:41:24.442Z,-4.08
2024-01-09T03:42:25.053Z,-4.04
2024-01-09T03:43:25.772Z,-4.01
2024-01-09T03:44:25.989Z,-4.02
2024-01-09T03:45:25.865Z,-4.04
2024-01-09T03:46:26.547Z,-4.01
2024-01-09T03:47:26.963Z,-3.99
2024-01-09T03:48:28.044Z,-4.05
2024-01-09T03:49:28.749Z,-3.99
2024-01-09T03:50:29.105Z,-4.01
2024-01-09T03:51:29.112Z,-3.99
2024-01-09T03:52:29.409Z,-4.01
2024-01-09T03:53:29.822Z,-4.01
2024-01-09T03:54:30.555Z,-4.04
2024-01-09T03:55:31.072Z,-4.02
2024-01-09T03:56:32.116Z,-3.98
2024-01-09T03:57:32.044Z,-4.05
2024-01-09T03:58:32.539Z,-3.98
2024-01-09T03:59:33.337Z,-3.96
2024-01-09T04:00:33.644Z,-4.12
2024-01-09T04:01:34.421Z,-3.98
2024-01-09T04:02:35.230Z,-4.06
2024-01-09T04:03:36.106Z,-4.06
2024-01-09T04:04:36.494Z,-4.02
2024-01-09T04:05:37.720Z,-3.98
2024-01-09T04:06:37.720Z,-4.02
2024-01-09T04:07:38.539Z,-4.02
2024-01-09T04:08:39.374Z,-4.01
2024-01-09T04:09:40.095Z,-4.02
2024-01-09T04:10:40.576Z,-3.95
2024-01-09T04:11:41.608Z,-4.13
2024-01-09T04:12:41.856Z,-3.9
2024-01-09T04:13:42.348Z,-4.02
2024-01-09T04:14:43.808Z,-4.06
2024-01-09T04:15:44.110Z,-4.06
2024-01-09T04:16:44.610Z,-4.05
2024-01-09T04:17:45.593Z,-3.98
2024-01-09T04:18:46.037Z,-4.02
2024-01-09T04:19:46.547Z,-4.04
2024-01-09T04:20:46.594Z,-3.96
2024-01-09T04:21:47.201Z,-3.95
2024-01-09T04:22:48.019Z,-4.04
2024-01-09T04:23:48.484Z,-4.01
2024-01-09T04:24:48.913Z,-3.98
2024-01-09T04:25:49.549Z,-4.05
2024-01-09T04:26:50.286Z,-3.98
2024-01-09T04:27:51.062Z,-4.02
2024-01-09T04:28:51.418Z,-4.01
2024-01-09T04:29:52.635Z,-4.01
2024-01-09T04:30:52.889Z,-3.95
2024-01-09T04:31:52.982Z,-3.9
2024-01-09T04:32:53.299Z,-3.94
2024-01-09T04:33:53.575Z,-3.94
2024-01-09T04:34:53.839Z,-3.84
2024-01-09T04:35:54.062Z,-3.8
2024-01-09T04:36:53.968Z,-3.9
2024-01-09T04:37:54.961Z,-3.87
2024-01-09T04:38:56.047Z,-3.94
2024-01-09T04:39:56.790Z,-4.04
2024-01-09T04:40:56.732Z,-3.95
2024-01-09T04:41:57.610Z,-4.04
2024-01-09T04:42:58.367Z,-3.91
2024-01-09T04:43:59.061Z,-4.02
2024-01-09T04:45:00.365Z,-3.94
2024-01-09T04:46:00.584Z,-4.04
2024-01-09T04:47:00.690Z,-3.88
2024-01-09T04:48:01.447Z,-3.91
2024-01-09T04:49:02.231Z,-3.95
2024-01-09T04:50:02.387Z,-3.98
2024-01-09T04:51:02.526Z,-3.98
2024-01-09T04:52:03.218Z,-3.9
2024-01-09T04:53:04.458Z,-3.95
2024-01-09T04:54:05.083Z,-3.83
2024-01-09T04:55:05.666Z,-3.94
2024-01-09T04:56:06.008Z,-4.02
2024-01-09T04:57:07.013Z,-4.01
2024-01-09T04:58:07.998Z,-3.94
2024-01-09T04:59:08.531Z,-3.88
2024-01-09T05:00:09.485Z,-3.99
2024-01-09T05:01:09.351Z,-4.01
2024-01-09T05:02:09.931Z,-4.05
2024-01-09T05:03:11.397Z,-4.04
2024-01-09T05:04:15.805Z,-3.99
2024-01-09T05:06:12.789Z,-4.05
2024-01-09T05:07:13.461Z,-4.04
2024-01-09T05:08:14.285Z,-4.04
2024-01-09T05:09:15.206Z,-4.08
2024-01-09T05:10:15.499Z,-4.01
2024-01-09T05:11:20.060Z,-4.04
2024-01-09T05:12:16.970Z,-4.08
2024-01-09T05:13:17.034Z,-4.04
2024-01-09T05:14:17.281Z,-4.12
2024-01-09T05:15:18.409Z,-4.09
2024-01-09T05:16:18.955Z,-4.26
2024-01-09T05:17:19.234Z,-4.14
2024-01-09T05:18:19.805Z,-4.12
2024-01-09T05:19:20.276Z,-4.17
2024-01-09T05:20:20.611Z,-4.19
2024-01-09T05:21:20.455Z,-4.24
2024-01-09T05:22:21.404Z,-4.3
2024-01-09T05:23:22.058Z,-4.3
2024-01-09T05:24:23.017Z,-4.24
2024-01-09T05:25:23.777Z,-4.23
2024-01-09T05:26:26.526Z,-4.16
2024-01-09T05:28:25.890Z,-4.16
2024-01-09T05:29:25.916Z,-4.23
2024-01-09T05:30:27.158Z,-4.27
2024-01-09T05:31:29.232Z,-4.24
2024-01-09T05:32:27.203Z,-4.23
2024-01-09T05:33:28.302Z,-4.24
2024-01-09T05:34:28.088Z,-4.23
2024-01-09T05:35:29.057Z,-4.26
2024-01-09T05:36:29.347Z,-4.19
2024-01-09T05:37:30.097Z,-4.27
2024-01-09T05:38:30.234Z,-4.17
2024-01-09T05:39:30.715Z,-4.14
2024-01-09T05:40:30.997Z,-4.14
2024-01-09T05:41:32.130Z,-4.22
2024-01-09T05:42:32.915Z,-4.22
2024-01-09T05:43:33.588Z,-4.09
2024-01-09T05:44:34.424Z,-4.22
2024-01-09T05:45:35.279Z,-4.19
2024-01-09T05:46:35.885Z,-4.14
2024-01-09T05:47:37.044Z,-4.16
2024-01-09T05:48:37.704Z,-4.09
2024-01-09T05:49:37.385Z,-4.12
2024-01-09T05:50:38.051Z,-4.12
2024-01-09T05:51:39.323Z,-4.14
2024-01-09T05:52:40.075Z,-4.12
2024-01-09T05:53:40.756Z,-4.12
2024-01-09T05:54:41.134Z,-4.17
2024-01-09T05:55:41.632Z,-4.12
2024-01-09T05:56:42.426Z,-4.13
2024-01-09T05:57:42.469Z,-4.14
2024-01-09T05:58:43.372Z,-4.12
2024-01-09T05:59:44.398Z,-4.12
2024-01-09T06:00:45.083Z,-4.14
2024-01-09T06:01:44.769Z,-4.14
2024-01-09T06:02:45.691Z,-4.12
2024-01-09T06:03:45.814Z,-4.14
2024-01-09T06:04:52.403Z,-4.17
2024-01-09T06:05:47.825Z,-4.17
2024-01-09T06:06:49.026Z,-4.26
2024-01-09T06:07:49.260Z,-4.2
2024-01-09T06:08:49.936Z,-4.24
2024-01-09T06:09:50.656Z,-4.23
2024-01-09T06:10:51.756Z,-4.16
2024-01-09T06:11:52.640Z,-4.17
2024-01-09T06:12:52.684Z,-4.19
2024-01-09T06:13:53.096Z,-4.22
2024-01-09T06:14:53.607Z,-4.27
2024-01-09T06:15:54.124Z,-4.26
2024-01-09T06:16:54.328Z,-4.17
2024-01-09T06:17:55.615Z,-4.16
2024-01-09T06:18:56.179Z,-4.17
2024-01-09T06:19:56.616Z,-4.14
2024-01-09T06:20:57.420Z,-4.17
2024-01-09T06:21:57.754Z,-4.27
2024-01-09T06:22:58.939Z,-4.14
2024-01-09T06:23:59.961Z,-4.13
2024-01-09T06:25:00.736Z,-4.13
2024-01-09T06:26:01.487Z,-4.13
2024-01-09T06:27:02.269Z,-4.06
2024-01-09T06:28:03.009Z,-4.17
2024-01-09T06:29:03.266Z,-4.13
2024-01-09T06:30:04.187Z,-4.16
2024-01-09T06:31:04.762Z,-4.14
2024-01-09T06:32:04.612Z,-4.14
2024-01-09T06:33:06.411Z,-4.13
2024-01-09T06:34:06.832Z,-4.19
2024-01-09T06:35:06.668Z,-4.12
2024-01-09T06:36:07.351Z,-4.14
2024-01-09T06:37:08.327Z,-4.19
2024-01-09T06:38:09.095Z,-4.17
2024-01-09T06:39:10.112Z,-4.2
2024-01-09T06:40:10.646Z,-4.16
2024-01-09T06:41:10.926Z,-4.13
2024-01-09T06:42:11.610Z,-4.17
2024-01-09T06:43:11.943Z,-4.05
2024-01-09T06:44:12.748Z,-4.06
2024-01-09T06:45:13.452Z,-4.06
2024-01-09T06:46:14.062Z,-4.08
2024-01-09T06:47:14.857Z,-4.09
2024-01-09T06:48:16.275Z,-4.04
2024-01-09T06:49:16.456Z,-4.04
2024-01-09T06:50:38.810Z,-3.98
2024-01-09T06:52:17.677Z,-3.99
2024-01-09T06:53:18.654Z,-4.01
2024-01-09T06:54:18.698Z,-4.02
2024-01-09T06:55:19.180Z,-3.91
2024-01-09T06:56:20.186Z,-3.83
2024-01-09T06:57:19.873Z,-3.75
2024-01-09T06:58:20.587Z,-3.9
2024-01-09T06:59:21.476Z,-3.78
2024-01-09T07:00:22.007Z,-3.71
2024-01-09T07:01:25.845Z,-3.81
2024-01-09T07:03:24.683Z,-3.78
2024-01-09T07:04:26.097Z,-3.94
2024-01-09T07:05:26.853Z,-3.78
2024-01-09T07:06:27.579Z,-3.95
2024-01-09T07:07:41.950Z,-3.84
2024-01-09T07:09:29.971Z,-3.81
2024-01-09T07:10:30.531Z,-3.87
2024-01-09T07:11:31.574Z,-3.8
2024-01-09T07:12:31.985Z,-3.88
2024-01-09T07:13:32.509Z,-3.9
2024-01-09T07:14:33.217Z,-3.78
2024-01-09T07:15:33.580Z,-3.87
2024-01-09T07:16:36.814Z,-3.81
2024-01-09T07:17:34.539Z,-3.91
2024-01-09T07:18:35.103Z,-3.84
2024-01-09T07:19:35.947Z,-3.9
2024-01-09T07:20:35.697Z,-3.96
2024-01-09T07:21:36.743Z,-4.01
2024-01-09T07:22:36.906Z,-3.99
2024-01-09T07:23:37.756Z,-3.94
2024-01-09T07:24:37.998Z,-3.88
2024-01-09T07:25:38.539Z,-4.02
2024-01-09T07:26:39.399Z,-3.95
2024-01-09T07:27:39.170Z,-4.04
2024-01-09T07:28:39.943Z,-4.06
2024-01-09T07:29:40.232Z,-4.04
2024-01-09T07:30:40.369Z,-4.09
2024-01-09T07:31:41.596Z,-4.09
2024-01-09T07:32:42.711Z,-4.04
2024-01-09T07:33:43.320Z,-4.05
2024-01-09T07:34:43.847Z,-4.14
2024-01-09T07:35:44.507Z,-4.06
2024-01-09T07:36:44.550Z,-4.08
2024-01-09T07:37:45.504Z,-4.12
2024-01-09T07:38:46.471Z,-4.14
2024-01-09T07:39:46.641Z,-4.16
2024-01-09T07:40:47.802Z,-4.12
2024-01-09T07:41:48.686Z,-4.05
2024-01-09T07:43:02.057Z,-4.04
2024-01-09T07:44:50.433Z,-4.05
2024-01-09T07:45:50.392Z,-4.2
2024-01-09T07:46:52.002Z,-4.04
2024-01-09T07:48:52.451Z,-4.02
2024-01-09T07:49:52.585Z,-4.13
2024-01-09T07:50:53.629Z,-4.12
2024-01-09T07:51:54.396Z,-4.2
2024-01-09T07:52:55.590Z,-4.17
2024-01-09T07:53:56.478Z,-4.12
2024-01-09T07:54:57.418Z,-4.16
2024-01-09T07:55:58.479Z,-4.12
2024-01-09T07:56:58.903Z,-4.16
2024-01-09T07:57:59.476Z,-4.08
2024-01-09T07:59:00.205Z,-4.12
2024-01-09T08:00:00.942Z,-4.02
2024-01-09T08:01:01.868Z,-4.04
2024-01-09T08:02:02.858Z,-4.06
2024-01-09T08:03:03.293Z,-4.16
2024-01-09T08:04:03.611Z,-4.01
2024-01-09T08:05:03.998Z,-4.02
2024-01-09T08:06:05.047Z,-4.01
2024-01-09T08:07:05.547Z,-4.06
2024-01-09T08:08:06.268Z,-4.01
2024-01-09T08:09:07.048Z,-4.06
2024-01-09T08:10:06.926Z,-4.08
2024-01-09T08:11:08.101Z,-4.01
2024-01-09T08:12:09.232Z,-3.99
2024-01-09T08:13:09.589Z,-4.04
2024-01-09T08:14:10.738Z,-4.02
2024-01-09T08:15:11.666Z,-4.06
2024-01-09T08:16:12.436Z,-3.99
2024-01-09T08:17:13.662Z,-4.02
2024-01-09T08:18:14.522Z,-3.99
2024-01-09T08:19:14.176Z,-3.98
2024-01-09T08:20:14.460Z,-3.85
2024-01-09T08:21:14.735Z,-3.81
2024-01-09T08:22:15.567Z,-3.84
2024-01-09T08:23:15.779Z,-3.88
2024-01-09T08:24:15.494Z,-3.91
2024-01-09T08:25:16.475Z,-3.9
2024-01-09T08:26:17.308Z,-3.87
2024-01-09T08:27:17.194Z,-3.78
2024-01-09T08:28:17.755Z,-3.8
2024-01-09T08:29:19.014Z,-3.81
2024-01-09T08:30:19.547Z,-3.98
2024-01-09T08:31:20.057Z,-3.91
2024-01-09T08:32:21.125Z,-3.88
2024-01-09T08:33:26.671Z,-3.88
2024-01-09T08:34:22.634Z,-3.84
2024-01-09T08:35:22.906Z,-3.87
2024-01-09T08:36:23.507Z,-3.81
2024-01-09T08:37:24.362Z,-3.94
2024-01-09T08:38:24.682Z,-3.94
2024-01-09T08:39:24.532Z,-3.91
2024-01-09T08:40:25.711Z,-3.98
2024-01-09T08:41:26.050Z,-3.81
2024-01-09T08:42:26.685Z,-3.9
2024-01-09T08:43:27.739Z,-3.78
2024-01-09T08:44:28.864Z,-3.69
2024-01-09T08:46:29.538Z,-3.51
2024-01-09T08:47:30.569Z,-3.64
2024-01-09T08:48:31.291Z,-3.47
2024-01-09T08:49:31.847Z,-3.53
2024-01-09T08:50:31.667Z,-3.48
2024-01-09T08:51:34.933Z,-3.44
2024-01-09T08:53:33.931Z,-3.4
2024-01-09T08:54:34.395Z,-3.43
2024-01-09T08:55:35.072Z,-3.46
2024-01-09T08:56:36.138Z,-3.48
2024-01-09T08:57:36.724Z,-3.48
2024-01-09T08:58:36.407Z,-3.53
2024-01-09T08:59:37.557Z,-3.55
2024-01-09T09:00:37.625Z,-3.48
2024-01-09T09:01:38.541Z,-3.47
2024-01-09T09:02:39.418Z,-3.53
2024-01-09T09:03:39.712Z,-3.48
2024-01-09T09:04:39.461Z,-3.48
2024-01-09T09:05:43.577Z,-3.46
2024-01-09T09:07:41.029Z,-3.53
2024-01-09T09:08:42.313Z,-3.44
2024-01-09T09:09:42.630Z,-3.62
2024-01-09T09:10:42.776Z,-3.59
2024-01-09T09:11:42.968Z,-3.62
2024-01-09T09:12:44.092Z,-3.68
2024-01-09T09:13:44.901Z,-3.77
2024-01-09T09:14:46.009Z,-3.69
2024-01-09T09:15:47.151Z,-3.69
2024-01-09T09:16:49.887Z,-3.83
2024-01-09T09:18:49.659Z,-3.74
2024-01-09T09:19:50.015Z,-3.68
2024-01-09T09:20:50.186Z,-3.66
2024-01-09T09:21:50.445Z,-3.69
2024-01-09T09:22:51.495Z,-3.62
2024-01-09T09:23:52.422Z,-3.74
2024-01-09T09:24:53.320Z,-3.64
2024-01-09T09:25:54.242Z,-3.65
2024-01-09T09:26:54.198Z,-3.59
2024-01-09T09:27:55.814Z,-3.58
2024-01-09T09:29:28.086Z,-3.47
2024-01-09T09:30:57.631Z,-3.43
2024-01-09T09:31:57.911Z,-3.44
2024-01-09T09:32:58.798Z,-3.3
2024-01-09T09:33:59.569Z,-3.32
2024-01-09T09:34:59.784Z,-3.32
2024-01-09T09:36:00.753Z,-3.26
2024-01-09T09:37:01.214Z,-3.27
2024-01-09T09:38:02.473Z,-3.23
2024-01-09T09:39:02.955Z,-3.23
2024-01-09T09:40:03.031Z,-3.26
2024-01-09T09:41:03.746Z,-3.2
2024-01-09T09:42:05.153Z,-3.19
2024-01-09T09:43:05.360Z,-3.26
2024-01-09T09:44:05.324Z,-3.17
2024-01-09T09:45:06.787Z,-3.2
2024-01-09T09:46:12.458Z,-3.17
2024-01-09T09:48:08.883Z,-3.01
2024-01-09T09:49:09.959Z,-3.01
2024-01-09T09:50:10.071Z,-2.99
2024-01-09T09:51:11.385Z,-2.98
2024-01-09T09:52:10.979Z,-2.96
2024-01-09T09:53:11.741Z,-2.93
2024-01-09T09:54:12.785Z,-2.86
2024-01-09T09:55:13.129Z,-2.84
2024-01-09T09:56:13.677Z,-2.78
2024-01-09T09:57:13.765Z,-2.75
2024-01-09T09:58:13.943Z,-2.66
2024-01-09T09:59:14.861Z,-2.61
2024-01-09T10:00:15.194Z,-2.61
2024-01-09T10:01:16.004Z,-2.55
2024-01-09T10:02:16.272Z,-2.69
2024-01-09T10:03:16.992Z,-2.65
2024-01-09T10:04:17.262Z,-2.63
2024-01-09T10:05:17.726Z,-2.68
2024-01-09T10:06:18.354Z,-2.61
2024-01-09T10:07:18.488Z,-2.63
2024-01-09T10:08:19.424Z,-2.61
2024-01-09T10:09:19.501Z,-2.68
2024-01-09T10:10:20.449Z,-2.65
2024-01-09T10:11:20.706Z,-2.65
2024-01-09T10:12:20.815Z,-2.65
2024-01-09T10:13:21.218Z,-2.62
2024-01-09T10:14:22.118Z,-2.66
2024-01-09T10:15:22.376Z,-2.57
2024-01-09T10:16:22.908Z,-2.62
2024-01-09T10:17:24.209Z,-2.63
2024-01-09T10:18:24.976Z,-2.54
2024-01-09T10:19:25.701Z,-2.66
2024-01-09T10:20:27.655Z,-2.58
2024-01-09T10:22:27.101Z,-2.47
2024-01-09T10:23:28.405Z,-2.51
2024-01-09T10:24:28.570Z,-2.57
2024-01-09T10:25:29.154Z,-2.62
2024-01-09T10:26:30.778Z,-2.58
2024-01-09T10:27:30.246Z,-2.63
2024-01-09T10:28:31.007Z,-2.75
2024-01-09T10:29:31.769Z,-2.72
2024-01-09T10:30:32.344Z,-2.76
2024-01-09T10:31:33.606Z,-2.94
2024-01-09T10:32:34.542Z,-2.98
2024-01-09T10:33:35.347Z,-2.9
2024-01-09T10:34:34.574Z,-2.93
2024-01-09T10:35:35.750Z,-2.81
2024-01-09T10:36:36.077Z,-2.73
2024-01-09T10:37:36.442Z,-2.73
2024-01-09T10:38:38.425Z,-2.76
2024-01-09T10:39:37.627Z,-2.8
2024-01-09T10:40:38.404Z,-2.68
2024-01-09T10:41:39.535Z,-2.66
2024-01-09T10:42:39.405Z,-2.62
2024-01-09T10:43:40.155Z,-2.63
2024-01-09T10:44:41.455Z,-2.66
2024-01-09T10:45:41.294Z,-2.57
2024-01-09T10:46:41.972Z,-2.61
2024-01-09T10:47:43.922Z,-2.62
2024-01-09T10:48:44.050Z,-2.62
2024-01-09T10:49:43.658Z,-2.68
2024-01-09T10:50:44.682Z,-2.75
2024-01-09T10:51:44.696Z,-2.75
2024-01-09T10:52:45.606Z,-2.78
2024-01-09T10:53:46.738Z,-2.81
2024-01-09T10:54:49.488Z,-2.72
2024-01-09T10:57:48.607Z,-2.78
2024-01-09T10:58:49.688Z,-2.58
2024-01-09T10:59:50.577Z,-2.65
2024-01-09T11:00:51.385Z,-2.68
2024-01-09T11:01:51.143Z,-2.62
2024-01-09T11:02:52.012Z,-2.72
2024-01-09T11:03:52.816Z,-2.75
2024-01-09T11:04:53.161Z,-2.76
2024-01-09T11:05:54.265Z,-2.89
2024-01-09T11:06:54.920Z,-2.94
2024-01-09T11:07:54.722Z,-2.99
2024-01-09T11:08:55.812Z,-2.94
2024-01-09T11:09:56.019Z,-2.93
2024-01-09T11:10:57.196Z,-2.96
2024-01-09T11:11:57.324Z,-2.99
2024-01-09T11:12:58.345Z,-2.96
2024-01-09T11:13:58.469Z,-2.96
2024-01-09T11:14:59.567Z,-2.93
2024-01-09T11:15:59.797Z,-2.8
2024-01-09T11:17:00.410Z,-2.84
2024-01-09T11:18:01.403Z,-2.76
2024-01-09T11:19:01.973Z,-2.63
2024-01-09T11:20:02.469Z,-2.62
2024-01-09T11:21:02.788Z,-2.62
2024-01-09T11:22:03.149Z,-2.66
2024-01-09T11:23:03.944Z,-2.75
2024-01-09T11:24:05.696Z,-2.75
2024-01-09T11:26:05.320Z,-2.69
2024-01-09T11:27:05.372Z,-2.8
2024-01-09T11:28:06.282Z,-2.81
2024-01-09T11:29:06.962Z,-2.87
2024-01-09T11:30:08.142Z,-2.76
2024-01-09T11:31:08.442Z,-2.73
2024-01-09T11:32:08.696Z,-2.69
2024-01-09T11:33:10.292Z,-2.7
2024-01-09T11:34:11.243Z,-2.72
2024-01-09T11:35:11.460Z,-2.57
2024-01-09T11:36:11.785Z,-2.63
2024-01-09T11:37:12.285Z,-2.68
2024-01-09T11:38:12.383Z,-2.61
2024-01-09T11:39:13.235Z,-2.54
2024-01-09T11:40:14.178Z,-2.51
2024-01-09T11:41:14.982Z,-2.47
2024-01-09T11:42:16.321Z,-2.51
2024-01-09T11:43:16.856Z,-2.42
2024-01-09T11:44:17.950Z,-2.34
2024-01-09T11:45:17.598Z,-2.29
2024-01-09T11:46:18.496Z,-2.33
2024-01-09T11:47:18.948Z,-2.32
2024-01-09T11:48:21.068Z,-2.28
2024-01-09T11:49:21.445Z,-2.25
2024-01-09T11:50:21.039Z,-2.32
2024-01-09T11:51:21.321Z,-2.51
2024-01-09T11:52:21.455Z,-2.45
2024-01-09T11:53:21.470Z,-2.47
2024-01-09T11:54:21.896Z,-2.29
2024-01-09T11:55:22.826Z,-2.22
2024-01-09T11:56:23.960Z,-2.15
2024-01-09T11:58:24.493Z,-2.18
2024-01-09T11:59:25.587Z,-2.14
2024-01-09T12:00:25.221Z,-2.14
2024-01-09T12:01:26.952Z,-2.29
2024-01-09T12:02:27.413Z,-2.25
2024-01-09T12:03:26.791Z,-2.25
2024-01-09T12:04:27.982Z,-2.29
2024-01-09T12:05:27.881Z,-2.33
2024-01-09T12:06:28.126Z,-2.4
2024-01-09T12:07:28.469Z,-2.32
2024-01-09T12:08:29.325Z,-2.4
2024-01-09T12:09:30.430Z,-2.4
2024-01-09T12:10:38.879Z,-2.47
2024-01-09T12:12:31.659Z,-2.58
2024-01-09T12:13:32.489Z,-2.58
2024-01-09T12:14:33.331Z,-2.75
2024-01-09T12:15:34.229Z,-2.72
2024-01-09T12:16:34.808Z,-2.73
2024-01-09T12:17:36.438Z,-2.76
2024-01-09T12:18:37.247Z,-2.8
2024-01-09T12:19:37.582Z,-2.83
2024-01-09T12:20:37.563Z,-2.8
2024-01-09T12:21:38.372Z,-2.75
2024-01-09T12:22:39.283Z,-2.69
2024-01-09T12:24:24.269Z,-2.55
2024-01-09T12:25:44.867Z,-2.55
2024-01-09T12:26:44.914Z,-2.58
2024-01-09T12:27:45.294Z,-2.58
2024-01-09T12:28:46.083Z,-2.86
2024-01-09T12:29:46.964Z,-2.83
2024-01-09T12:30:47.111Z,-2.91
2024-01-09T12:31:47.574Z,-2.83
2024-01-09T12:32:48.127Z,-2.81
2024-01-09T12:33:48.835Z,-2.93
2024-01-09T12:34:48.980Z,-2.81
2024-01-09T12:35:48.937Z,-2.83
2024-01-09T12:36:49.106Z,-2.86
2024-01-09T12:37:49.269Z,-2.8
2024-01-09T12:38:50.609Z,-2.94
2024-01-09T12:39:51.067Z,-2.99
2024-01-09T12:40:51.115Z,-2.96
2024-01-09T12:41:52.398Z,-3.04
2024-01-09T12:42:52.548Z,-3.12
2024-01-09T12:43:54.084Z,-3.19
2024-01-09T12:44:53.696Z,-3.08
2024-01-09T12:45:54.080Z,-3.15
2024-01-09T12:46:55.014Z,-3.17
2024-01-09T12:47:55.284Z,-3.09
2024-01-09T12:48:55.679Z,-2.94
2024-01-09T12:50:08.918Z,-2.89
2024-01-09T12:51:57.485Z,-2.91
2024-01-09T12:52:58.454Z,-2.91
2024-01-09T12:53:58.566Z,-2.91
2024-01-09T12:55:05.373Z,-2.87
2024-01-09T12:55:59.875Z,-2.83
2024-01-09T12:57:00.734Z,-2.73
2024-01-09T12:58:01.247Z,-2.84
2024-01-09T12:59:01.982Z,-2.72
2024-01-09T13:00:02.718Z,-2.76
2024-01-09T13:01:03.109Z,-2.84
2024-01-09T13:02:03.979Z,-2.9
2024-01-09T13:03:05.550Z,-2.98
2024-01-09T13:04:06.068Z,-3.05
2024-01-09T13:05:07.635Z,-3.08
2024-01-09T13:07:07.333Z,-3.11
2024-01-09T13:08:07.980Z,-3.14
2024-01-09T13:09:08.642Z,-3.15
2024-01-09T13:10:09.929Z,-3.22
2024-01-09T13:11:10.321Z,-3.23
2024-01-09T13:12:14.745Z,-3.05
2024-01-09T13:13:12.770Z,-3.15
2024-01-09T13:15:12.805Z,-3.07
2024-01-09T13:16:13.977Z,-3.09
2024-01-09T13:17:13.949Z,-3.11
2024-01-09T13:18:19.665Z,-3.14
2024-01-09T13:20:15.411Z,-3.09
2024-01-09T13:21:16.103Z,-3.15
2024-01-09T13:24:03.294Z,-2.94
2024-01-09T13:25:22.406Z,-2.96
2024-01-09T13:26:22.430Z,-2.93
2024-01-09T13:27:23.348Z,-2.84
2024-01-09T13:28:23.396Z,-2.84
2024-01-09T13:31:01.282Z,-2.57
2024-01-09T13:32:59.760Z,-2.55
2024-01-09T13:34:00.604Z,-2.52
2024-01-09T13:35:00.730Z,-2.54